createdAt,value
2023-03-04T00:02:33.807Z,94186.00
2023-03-04T00:06:39.604Z,94171.00
2023-03-04T00:10:43.147Z,94188.00
2023-03-04T00:14:48.148Z,94182.00
2023-03-04T00:18:51.738Z,94157.00
2023-03-04T00:22:55.685Z,94169.00
2023-03-04T00:27:00.605Z,94180.00
2023-03-04T00:31:05.879Z,94178.00
2023-03-04T00:35:10.183Z,94184.00
2023-03-04T00:39:15.299Z,94176.00
2023-03-04T00:43:18.938Z,94149.00
2023-03-04T00:47:24.046Z,94152.00
2023-03-04T00:51:52.192Z,94160.00
2023-03-04T01:01:43.809Z,94144.00
2023-03-04T01:05:48.918Z,94119.00
2023-03-04T01:09:57.479Z,94127.00
2023-03-04T01:14:01.484Z,94144.00
2023-03-04T01:18:31.279Z,94136.00
2023-03-04T01:22:36.652Z,94098.00
2023-03-04T01:26:42.646Z,94122.00
2023-03-04T01:30:46.135Z,94103.00
2023-03-04T01:35:07.105Z,94115.00
2023-03-04T01:39:11.961Z,94121.00
2023-03-04T01:43:32.621Z,94125.00
2023-03-04T01:47:37.042Z,94099.00
2023-03-04T01:51:40.813Z,94093.00
2023-03-04T01:55:46.036Z,94101.00
2023-03-04T02:00:17.917Z,94104.00
2023-03-04T02:04:24.839Z,94099.00
2023-03-04T02:08:31.578Z,94096.00
2023-03-04T02:12:37.319Z,94073.00
2023-03-04T02:16:41.704Z,94069.00
2023-03-04T02:21:06.888Z,94079.00
2023-03-04T02:25:16.095Z,94047.00
2023-03-04T02:29:21.326Z,94058.00
2023-03-04T02:33:24.938Z,94055.00
2023-03-04T02:37:28.694Z,94046.00
2023-03-04T02:41:32.930Z,94029.00
2023-03-04T02:45:46.412Z,94041.00
2023-03-04T02:49:50.797Z,94039.00
2023-03-04T02:53:54.362Z,94002.00
2023-03-04T02:58:21.267Z,94034.00
2023-03-04T03:02:26.227Z,94031.00
2023-03-04T03:06:29.950Z,93997.00
2023-03-04T03:11:29.037Z,94023.00
2023-03-04T03:15:32.962Z,93989.00
2023-03-04T03:19:38.132Z,94013.00
2023-03-04T03:23:51.590Z,93996.00
2023-03-04T03:27:55.253Z,94004.00
2023-03-04T03:31:59.366Z,93981.00
2023-03-04T03:36:10.410Z,93965.00
2023-03-04T03:40:15.569Z,93963.00
2023-03-04T03:44:23.638Z,93978.00
2023-03-04T03:48:27.263Z,93975.00
2023-03-04T03:52:32.374Z,93975.00
2023-03-04T03:56:41.865Z,93982.00
2023-03-04T04:00:45.506Z,93978.00
2023-03-04T04:04:50.749Z,93957.00
2023-03-04T04:08:55.792Z,93946.00
2023-03-04T04:12:59.530Z,93964.00
2023-03-04T04:17:03.101Z,93936.00
2023-03-04T04:21:07.308Z,93945.00
2023-03-04T04:25:16.329Z,93927.00
2023-03-04T04:29:19.992Z,93945.00
2023-03-04T04:33:25.629Z,93933.00
2023-03-04T04:37:29.193Z,93930.00
2023-03-04T04:41:40.380Z,93938.00
2023-03-04T04:45:44.091Z,93937.00
2023-03-04T04:49:52.663Z,93939.00
2023-03-04T04:53:56.360Z,93934.00
2023-03-04T04:58:01.457Z,93939.00
2023-03-04T05:02:16.262Z,93926.00
2023-03-04T05:06:19.774Z,93935.00
2023-03-04T05:10:23.388Z,93941.00
2023-03-04T05:14:29.680Z,93942.00
2023-03-04T05:18:35.081Z,93930.00
2023-03-04T05:22:38.737Z,93924.00
2023-03-04T05:26:42.380Z,93925.00
2023-03-04T05:31:36.970Z,93933.00
2023-03-04T05:35:43.369Z,93910.00
2023-03-04T05:39:47.152Z,93932.00
2023-03-04T05:43:57.320Z,93921.00
2023-03-04T05:48:02.557Z,93916.00
2023-03-04T05:52:07.630Z,93916.00
2023-03-04T05:56:41.628Z,93904.00
2023-03-04T06:00:45.466Z,93911.00
2023-03-04T06:04:49.084Z,93900.00
2023-03-04T06:09:29.769Z,93931.00
2023-03-04T06:13:35.501Z,93909.00
2023-03-04T06:17:42.022Z,93901.00
2023-03-04T06:21:49.816Z,93906.00
2023-03-04T06:25:54.953Z,93927.00
2023-03-04T06:30:29.942Z,93921.00
2023-03-04T06:34:34.042Z,93895.00
2023-03-04T06:39:36.036Z,93929.00
2023-03-04T06:43:40.315Z,93902.00
2023-03-04T06:47:45.958Z,93903.00
2023-03-04T06:51:50.576Z,93923.00
2023-03-04T06:55:54.106Z,93913.00
2023-03-04T07:00:19.827Z,93938.00
2023-03-04T07:04:25.109Z,93906.00
2023-03-04T07:08:31.666Z,93925.00
2023-03-04T07:13:01.509Z,93935.00
2023-03-04T07:17:28.639Z,93927.00
2023-03-04T07:21:33.731Z,93934.00
2023-03-04T07:25:37.464Z,93936.00
2023-03-04T07:30:30.960Z,93934.00
2023-03-04T07:34:34.827Z,93936.00
2023-03-04T07:38:40.005Z,93909.00
2023-03-04T07:42:44.570Z,93946.00
2023-03-04T07:46:55.090Z,93948.00
2023-03-04T07:51:07.622Z,93958.00
2023-03-04T07:56:14.516Z,93951.00
2023-03-04T08:00:21.163Z,93972.00
2023-03-04T08:05:15.926Z,93964.00
2023-03-04T08:09:19.761Z,93971.00
2023-03-04T08:13:25.784Z,93986.00
2023-03-04T08:17:31.518Z,93972.00
2023-03-04T08:21:35.644Z,94002.00
2023-03-04T08:25:41.954Z,93990.00
2023-03-04T08:29:45.722Z,93995.00
2023-03-04T08:33:51.445Z,93984.00
2023-03-04T08:37:55.331Z,93989.00
2023-03-04T08:41:59.056Z,93974.00
2023-03-04T08:46:03.289Z,93984.00
2023-03-04T08:50:38.775Z,93998.00
2023-03-04T08:54:42.467Z,94000.00
2023-03-04T08:58:46.614Z,94002.00
2023-03-04T09:02:50.344Z,93993.00
2023-03-04T09:06:55.609Z,93988.00
2023-03-04T09:11:28.422Z,94000.00
2023-03-04T09:15:32.110Z,93981.00
2023-03-04T09:19:35.963Z,93993.00
2023-03-04T09:23:50.738Z,93986.00
2023-03-04T09:27:56.781Z,93973.00
2023-03-04T09:32:02.063Z,93980.00
2023-03-04T09:36:11.627Z,94004.00
2023-03-04T09:40:29.345Z,93992.00
2023-03-04T09:44:37.071Z,93977.00
2023-03-04T09:48:57.262Z,94001.00
2023-03-04T09:53:17.804Z,93990.00
2023-03-04T09:57:30.986Z,93976.00
2023-03-04T10:01:55.317Z,93984.00
2023-03-04T10:06:02.580Z,93978.00
2023-03-04T10:15:04.762Z,93986.00
2023-03-04T10:20:11.489Z,93983.00
2023-03-04T10:24:18.453Z,93971.00
2023-03-04T10:28:25.954Z,93969.00
2023-03-04T10:32:39.556Z,93950.00
2023-03-04T10:37:05.875Z,93958.00
2023-03-04T10:41:15.729Z,93942.00
2023-03-04T10:50:36.338Z,93925.00
2023-03-04T10:55:05.220Z,93936.00
2023-03-04T10:59:44.523Z,93940.00
2023-03-04T11:03:51.465Z,93935.00
2023-03-04T11:08:00.372Z,93912.00
2023-03-04T11:12:22.457Z,93927.00
2023-03-04T11:16:28.806Z,93909.00
2023-03-04T11:20:34.896Z,93927.00
2023-03-04T11:24:40.404Z,93929.00
2023-03-04T11:28:56.005Z,93905.00
2023-03-04T11:33:20.753Z,93903.00
2023-03-04T11:37:36.153Z,93907.00
2023-03-04T11:42:00.302Z,93911.00
2023-03-04T11:46:50.989Z,93876.00
2023-03-04T11:51:25.552Z,93891.00
2023-03-04T11:55:46.830Z,93882.00
2023-03-04T12:00:14.001Z,93878.00
2023-03-04T12:04:55.318Z,93860.00
2023-03-04T12:09:35.320Z,93873.00
2023-03-04T12:14:03.658Z,93860.00
2023-03-04T12:18:25.515Z,93852.00
2023-03-04T12:27:31.347Z,93840.00
2023-03-04T12:31:39.263Z,93862.00
2023-03-04T12:35:59.395Z,93835.00
2023-03-04T12:40:34.226Z,93823.00
2023-03-04T12:45:00.478Z,93835.00
2023-03-04T12:49:24.072Z,93832.00
2023-03-04T12:53:36.394Z,93830.00
2023-03-04T12:57:40.749Z,93824.00
2023-03-04T13:02:03.280Z,93820.00
2023-03-04T13:06:24.156Z,93807.00
2023-03-04T13:10:29.855Z,93806.00
2023-03-04T13:15:17.978Z,93822.00
2023-03-04T13:19:48.435Z,93804.00
2023-03-04T13:23:54.397Z,93823.00
2023-03-04T13:28:19.994Z,93816.00
2023-03-04T13:32:38.780Z,93804.00
2023-03-04T13:37:28.132Z,93822.00
2023-03-04T13:41:36.185Z,93801.00
2023-03-04T13:45:41.722Z,93799.00
2023-03-04T13:50:47.144Z,93828.00
2023-03-04T13:54:51.148Z,93821.00
2023-03-04T13:59:28.708Z,93822.00
2023-03-04T14:03:36.520Z,93813.00
2023-03-04T14:07:40.276Z,93841.00
2023-03-04T14:11:50.242Z,93842.00
2023-03-04T14:15:58.209Z,93824.00
2023-03-04T14:20:25.800Z,93835.00
2023-03-04T14:24:31.828Z,93837.00
2023-03-04T14:28:47.898Z,93834.00
2023-03-04T14:32:53.746Z,93833.00
2023-03-04T14:36:59.164Z,93838.00
2023-03-04T14:41:29.317Z,93836.00
2023-03-04T14:45:37.007Z,93829.00
2023-03-04T14:49:41.221Z,93831.00
2023-03-04T14:54:51.774Z,93835.00
2023-03-04T14:58:58.630Z,93839.00
2023-03-04T15:03:05.082Z,93846.00
2023-03-04T15:07:16.264Z,93842.00
2023-03-04T15:11:26.375Z,93841.00
2023-03-04T15:16:03.196Z,93841.00
2023-03-04T15:20:26.177Z,93838.00
2023-03-04T15:24:29.865Z,93818.00
2023-03-04T15:29:29.865Z,93828.00
2023-03-04T15:33:35.597Z,93826.00
2023-03-04T15:37:39.370Z,93824.00
2023-03-04T15:42:24.962Z,93844.00
2023-03-04T15:46:28.802Z,93853.00
2023-03-04T15:50:39.226Z,93839.00
2023-03-04T15:54:43.022Z,93842.00
2023-03-04T15:58:50.047Z,93854.00
2023-03-04T16:02:53.783Z,93866.00
2023-03-04T16:07:01.899Z,93852.00
2023-03-04T16:11:06.141Z,93853.00
2023-03-04T16:15:15.718Z,93879.00
2023-03-04T16:19:20.719Z,93866.00
2023-03-04T16:23:26.588Z,93877.00
2023-03-04T16:27:30.422Z,93865.00
2023-03-04T16:31:40.147Z,93880.00
2023-03-04T16:35:45.504Z,93899.00
2023-03-04T16:39:50.964Z,93895.00
2023-03-04T16:43:56.738Z,93890.00
2023-03-04T16:48:00.865Z,93901.00
2023-03-04T16:52:53.780Z,93911.00
2023-03-04T16:56:59.346Z,93877.00
2023-03-04T17:01:03.459Z,93915.00
2023-03-04T17:05:10.189Z,93889.00
2023-03-04T17:09:16.282Z,93891.00
2023-03-04T17:13:21.429Z,93914.00
2023-03-04T17:17:25.400Z,93903.00
2023-03-04T17:21:29.071Z,93905.00
2023-03-04T17:25:32.709Z,93922.00
2023-03-04T17:29:39.075Z,93943.00
2023-03-04T17:33:44.036Z,93946.00
2023-03-04T17:37:47.602Z,93944.00
2023-03-04T17:41:53.381Z,93938.00
2023-03-04T17:46:25.621Z,93921.00
2023-03-04T17:50:54.503Z,93943.00
2023-03-04T17:55:08.690Z,93942.00
2023-03-04T17:59:15.682Z,93936.00
2023-03-04T18:03:21.197Z,93931.00
2023-03-04T18:08:28.009Z,93948.00
2023-03-04T18:12:33.164Z,93956.00
2023-03-04T18:16:37.185Z,93950.00
2023-03-04T18:20:44.802Z,93921.00
2023-03-04T18:24:48.593Z,93948.00
2023-03-04T18:29:08.713Z,93929.00
2023-03-04T18:33:12.474Z,93948.00
2023-03-04T18:37:17.669Z,93937.00
2023-03-04T18:41:21.182Z,93923.00
2023-03-04T18:45:28.986Z,93916.00
2023-03-04T18:49:32.941Z,93942.00
2023-03-04T18:53:38.111Z,93905.00
2023-03-04T18:57:50.536Z,93903.00
2023-03-04T19:01:58.781Z,93929.00
2023-03-04T19:06:03.016Z,93909.00
2023-03-04T19:10:38.929Z,93935.00
2023-03-04T19:14:44.688Z,93962.00
2023-03-04T19:24:53.079Z,93935.00
2023-03-04T19:28:58.285Z,93932.00
2023-03-04T19:33:01.875Z,93934.00
2023-03-04T19:37:06.601Z,93947.00
2023-03-04T19:41:11.618Z,93936.00
2023-03-04T19:45:18.479Z,93937.00
2023-03-04T19:49:22.167Z,93950.00
2023-03-04T19:53:29.510Z,93923.00
2023-03-04T19:57:33.704Z,93947.00
2023-03-04T20:02:03.588Z,93952.00
2023-03-04T20:06:08.873Z,93934.00
2023-03-04T20:10:14.672Z,93940.00
2023-03-04T20:14:44.406Z,93958.00
2023-03-04T20:18:49.638Z,93966.00
2023-03-04T20:22:53.148Z,93937.00
2023-03-04T20:26:57.003Z,93938.00
2023-03-04T20:31:38.477Z,93968.00
2023-03-04T20:35:43.742Z,93966.00
2023-03-04T20:39:47.895Z,93965.00
2023-03-04T20:43:51.773Z,93952.00
2023-03-04T20:47:55.473Z,93940.00
2023-03-04T20:52:06.647Z,93934.00
2023-03-04T20:56:10.586Z,93955.00
2023-03-04T21:00:15.276Z,93953.00
2023-03-04T21:04:30.814Z,93962.00
2023-03-04T21:08:38.129Z,93933.00
2023-03-04T21:12:41.855Z,93932.00
2023-03-04T21:16:45.435Z,93943.00
2023-03-04T21:21:38.622Z,93953.00
2023-03-04T21:25:44.227Z,93956.00
2023-03-04T21:29:49.605Z,93949.00
2023-03-04T21:34:02.668Z,93932.00
2023-03-04T21:38:06.266Z,93943.00
2023-03-04T21:42:13.053Z,93948.00
2023-03-04T21:46:58.024Z,93935.00
2023-03-04T21:55:26.573Z,93925.00
2023-03-04T21:59:31.742Z,93904.00
2023-03-04T22:03:54.622Z,93921.00
2023-03-04T22:07:58.385Z,93912.00
2023-03-04T22:12:02.373Z,93905.00
2023-03-04T22:16:08.490Z,93929.00
2023-03-04T22:20:14.963Z,93902.00
2023-03-04T22:24:18.666Z,93916.00
2023-03-04T22:28:31.885Z,93920.00
2023-03-04T22:32:37.042Z,93882.00
2023-03-04T22:36:44.019Z,93895.00
2023-03-04T22:40:49.112Z,93893.00
2023-03-04T22:44:52.684Z,93893.00
2023-03-04T22:49:04.944Z,93890.00
2023-03-04T22:53:08.592Z,93880.00
2023-03-04T22:57:12.201Z,93874.00
2023-03-04T23:01:33.517Z,93883.00
2023-03-04T23:05:38.715Z,93857.00
2023-03-04T23:09:42.566Z,93869.00
2023-03-04T23:13:46.280Z,93861.00
2023-03-04T23:17:50.265Z,93858.00
2023-03-04T23:21:55.289Z,93848.00
2023-03-04T23:25:58.924Z,93854.00
2023-03-04T23:30:06.260Z,93847.00
2023-03-04T23:34:09.819Z,93848.00
2023-03-04T23:38:14.953Z,93879.00
2023-03-04T23:42:24.679Z,93861.00
2023-03-04T23:46:29.206Z,93876.00
2023-03-04T23:50:35.299Z,93875.00
2023-03-04T23:54:42.662Z,93844.00
2023-03-04T23:58:46.716Z,93861.00
